Lenox Township, Michigan
Current Conditions -  °F | °C
As of 10:58 PM on Saturday 20 Dec 2014 (Local Time) from KMTC Reporting Station
Overcast Overcast  
Wind Chill: 29°   Ceiling: 2700
Heat Index: 29°   Visibility: 10mi
Dew Point: 25°   Wind: 0mph
Humidity: 84%   Direction: NA
Pressure: 30.26"   Gusts: NA
Location:  42.7851°N, 82.803°W
Report Text: KMTC 210358Z AUTO 00000KT 10SM OVC027 M02/M04 A3026 RMK AO2 SLP259 T10171041 $
Loading
Personal Weather Stations






























Interactive Weather Map New forecast layout! Learn more

10-Day Weather Forecast

Advertisements
Track Severe Weather on mobile